Time;durP1;ratioP1;P1;durP2;ratioP2;P2;SDS_P1;SDS_P2;PMS_P1;PMS_P2;Temp;Humidity;BMP_temperature;BMP_pressure;BME280_temperature;BME280_humidity;BME280_pressure;Samples;Min_cycle;Max_cycle;Signal;HPM_P1;HPM_P2
2023/01/05 00:01:24;;;;;;;;;;;;;;;;;;4438925;32;19977;-83
2023/01/05 00:03:49;;;;;;;;;;;;;;;;;;4439262;32;19944;-83
2023/01/05 00:06:14;;;;;;;;;;;;;;;;;;4438996;32;20313;-83
2023/01/05 00:08:39;;;;;;;;;;;;;;;;;;4456108;32;19932;-83
2023/01/05 00:24:46;;;;;;;;;;;;;;;;;;4456756;32;19966;-83
2023/01/05 00:27:11;;;;;;;;;;;;;;;;;;4443451;32;19932;-83
2023/01/05 00:29:36;;;;;;;;;;;;;;;;;;4441618;32;19954;-83
2023/01/05 00:32:01;;;;;;;;;;;;;;;;;;4457268;32;19951;-82
2023/01/05 00:34:26;;;;;;;;;;;;;;;;;;4455675;32;19946;-83
2023/01/05 00:36:51;;;;;;;;;;;;;;;;;;4441568;32;19940;-82
2023/01/05 00:39:16;;;;;;;;;;;;;;;;;;4442891;32;19950;-83
2023/01/05 00:41:41;;;;;;;;;;;;;;;;;;4457952;32;19933;-82
2023/01/05 00:44:07;;;;;;;;;;;;;;;;;;4444350;32;19948;-83
2023/01/05 00:46:32;;;;;;;;;;;;;;;;;;4445674;32;19950;-81
2023/01/05 00:48:57;;;;;;;;;;;;;;;;;;4446112;32;19939;-82
2023/01/05 00:51:22;;;;;;;;;;;;;;;;;;4446125;32;19963;-82
2023/01/05 00:53:47;;;;;;;;;;;;;;;;;;4460774;32;19951;-81
2023/01/05 00:56:12;;;;;;;;;;;;;;;;;;4445242;32;19933;-81
2023/01/05 00:58:37;;;;;;;;;;;;;;;;;;4446660;32;19933;-83
2023/01/05 01:01:02;;;;;;;;;;;;;;;;;;4460030;32;19932;-79
2023/01/05 01:03:28;;;;;;;;;;;;;;;;;;4459327;32;19936;-81
2023/01/05 01:05:53;;;;;;;;;;;;;;;;;;4458656;32;19960;-82
2023/01/05 01:08:18;;;;;;;;;;;;;;;;;;4444835;32;19959;-80
2023/01/05 01:10:43;;;;;;;;;;;;;;;;;;4458962;32;19962;-81
2023/01/05 01:13:08;;;;;;;;;;;;;;;;;;4444721;32;20261;-82
2023/01/05 01:15:33;;;;;;;;;;;;;;;;;;4444245;32;19945;-80
2023/01/05 01:17:58;;;;;;;;;;;;;;;;;;4458661;32;19932;-81
2023/01/05 01:20:23;;;;;;;;;;;;;;;;;;4459719;32;19946;-81
2023/01/05 01:22:49;;;;;;;;;;;;;;;;;;4456475;32;19947;-81
2023/01/05 01:25:14;;;;;;;;;;;;;;;;;;4441759;32;19968;-81
2023/01/05 01:27:39;;;;;;;;;;;;;;;;;;4440973;32;19956;-81
2023/01/05 01:30:04;;;;;;;;;;;;;;;;;;4455152;32;19932;-82
2023/01/05 01:32:29;;;;;;;;;;;;;;;;;;4464274;32;19921;-82
2023/01/05 01:34:55;;;;;;;;;;;;;;;;;;4470900;32;19941;-80
2023/01/05 01:37:21;;;;;;;;;;;;;;;;;;4462552;32;19937;-82
2023/01/05 01:39:46;;;;;;;;;;;;;;;;;;4455695;32;19937;-83
2023/01/05 01:42:11;;;;;;;;;;;;;;;;;;4456778;32;19970;-81
2023/01/05 01:44:36;;;;;;;;;;;;;;;;;;4465543;32;19948;-81
2023/01/05 01:47:01;;;;;;;;;;;;;;;;;;4455670;32;19949;-82
2023/01/05 01:49:27;;;;;;;;;;;;;;;;;;4457214;32;19945;-82
2023/01/05 01:51:53;;;;;;;;;;;;;;;;;;4455616;32;19956;-82
2023/01/05 01:54:18;;;;;;;;;;;;;;;;;;4455890;32;19951;-82
2023/01/05 01:56:43;;;;;;;;;;;;;;;;;;4441448;32;19973;-82
2023/01/05 01:59:08;;;;;;;;;;;;;;;;;;4454950;32;19937;-83
2023/01/05 02:01:33;;;;;;;;;;;;;;;;;;4439658;32;19995;-82
2023/01/05 02:03:58;;;;;;;;;;;;;;;;;;4454605;32;19977;-82
2023/01/05 02:06:23;;;;;;;;;;;;;;;;;;4455472;32;19982;-83
2023/01/05 02:08:49;;;;;;;;;;;;;;;;;;4455602;32;19937;-83
2023/01/05 02:11:14;;;;;;;;;;;;;;;;;;4453995;32;19933;-83
2023/01/05 02:13:39;;;;;;;;;;;;;;;;;;4454906;32;19967;-83
2023/01/05 02:16:04;;;;;;;;;;;;;;;;;;4454260;32;19972;-82
2023/01/05 02:18:29;;;;;;;;;;;;;;;;;;4457042;32;19928;-82
2023/01/05 02:20:54;;;;;;;;;;;;;;;;;;4455753;32;19972;-82
2023/01/05 02:23:19;;;;;;;;;;;;;;;;;;4456215;32;19940;-81
2023/01/05 02:25:44;;;;;;;;;;;;;;;;;;4454691;32;19951;-81
2023/01/05 02:28:09;;;;;;;;;;;;;;;;;;4453676;32;20252;-81
2023/01/05 02:30:35;;;;;;;;;;;;;;;;;;4454629;32;19933;-81
2023/01/05 02:33:00;;;;;;;;;;;;;;;;;;4454594;32;19951;-81
2023/01/05 02:35:25;;;;;;;;;;;;;;;;;;4459467;32;19943;-81
2023/01/05 02:37:50;;;;;;;;;;;;;;;;;;4466185;32;19985;-81
2023/01/05 02:40:16;;;;;;;;;;;;;;;;;;4465951;32;19937;-82
2023/01/05 02:42:41;;;;;;;;;;;;;;;;;;4465165;32;19936;-81
2023/01/05 02:45:06;;;;;;;;;;;;;;;;;;4463139;32;19932;-81
2023/01/05 02:47:31;;;;;;;;;;;;;;;;;;4460318;32;19936;-81
2023/01/05 02:49:56;;;;;;;;;;;;;;;;;;4453422;32;19933;-81
2023/01/05 02:52:21;;;;;;;;;;;;;;;;;;4453574;32;19975;-82
2023/01/05 02:54:46;;;;;;;;;;;;;;;;;;4451423;32;19921;-81
2023/01/05 02:57:12;;;;;;;;;;;;;;;;;;4464589;32;19933;-82
2023/01/05 02:59:37;;;;;;;;;;;;;;;;;;4451442;32;19941;-81
2023/01/05 03:02:02;;;;;;;;;;;;;;;;;;4454348;32;19952;-81
2023/01/05 03:04:27;;;;;;;;;;;;;;;;;;4439518;32;19941;-82
2023/01/05 03:06:55;;;;;;;;;;;;;;;;;;4439232;32;19984;-82
2023/01/05 03:09:24;;;;;;;;;;;;;;;;;;4440142;32;19980;-82
2023/01/05 03:14:33;;;;;;;;;;;;;;;;;;4454563;32;19939;-81
2023/01/05 03:16:58;;;;;;;;;;;;;;;;;;4438197;32;19940;-82
2023/01/05 03:19:38;;;;;;;;;;;;;;;;;;4453666;32;20328;-83
2023/01/05 03:35:44;;;;;;;;;;;;;;;;;;4455682;32;19973;-82
2023/01/05 03:38:09;;;;;;;;;;;;;;;;;;4439639;32;20361;-81
2023/01/05 03:40:34;;;;;;;;;;;;;;;;;;4453452;32;20342;-81
2023/01/05 03:42:59;;;;;;;;;;;;;;;;;;4439728;32;19948;-81
2023/01/05 03:45:25;;;;;;;;;;;;;;;;;;4442811;32;19947;-82
2023/01/05 03:47:50;;;;;;;;;;;;;;;;;;4442120;32;19932;-82
2023/01/05 03:50:15;;;;;;;;;;;;;;;;;;4442636;32;19968;-82
2023/01/05 03:52:40;;;;;;;;;;;;;;;;;;4439378;32;19936;-81
2023/01/05 03:55:05;;;;;;;;;;;;;;;;;;4440315;32;19998;-82
2023/01/05 03:57:30;;;;;;;;;;;;;;;;;;4450697;32;19932;-82
2023/01/05 03:59:55;;;;;;;;;;;;;;;;;;4450158;32;19970;-82
2023/01/05 04:02:20;;;;;;;;;;;;;;;;;;4443849;32;19946;-82
2023/01/05 04:04:45;;;;;;;;;;;;;;;;;;4439053;32;19955;-81
2023/01/05 04:07:11;;;;;;;;;;;;;;;;;;4439459;32;19969;-81
2023/01/05 04:09:36;;;;;;;;;;;;;;;;;;4438942;32;19936;-81
2023/01/05 04:12:01;;;;;;;;;;;;;;;;;;4440063;32;20000;-82
2023/01/05 04:14:26;;;;;;;;;;;;;;;;;;4447171;32;19925;-81
2023/01/05 04:16:51;;;;;;;;;;;;;;;;;;4453627;32;19928;-81
2023/01/05 04:19:16;;;;;;;;;;;;;;;;;;4440914;32;19964;-82
2023/01/05 04:21:41;;;;;;;;;;;;;;;;;;4438985;32;19973;-82
2023/01/05 04:24:06;;;;;;;;;;;;;;;;;;4439253;32;19953;-82
2023/01/05 04:26:31;;;;;;;;;;;;;;;;;;4438067;32;19962;-81
2023/01/05 04:28:57;;;;;;;;;;;;;;;;;;4451886;32;19936;-82
2023/01/05 04:31:22;;;;;;;;;;;;;;;;;;4438150;32;19936;-82
2023/01/05 04:33:47;;;;;;;;;;;;;;;;;;4437907;32;20000;-82
2023/01/05 04:36:12;;;;;;;;;;;;;;;;;;4437822;32;19936;-81
2023/01/05 04:38:37;;;;;;;;;;;;;;;;;;4451954;32;19989;-82
2023/01/05 04:41:02;;;;;;;;;;;;;;;;;;4452123;32;19943;-82
2023/01/05 04:43:27;;;;;;;;;;;;;;;;;;4437610;32;19996;-82
2023/01/05 04:45:52;;;;;;;;;;;;;;;;;;4437909;32;19940;-82
2023/01/05 04:48:18;;;;;;;;;;;;;;;;;;4452419;32;20274;-82
2023/01/05 04:50:46;;;;;;;;;;;;;;;;;;4438709;32;20373;-81
2023/01/05 04:53:11;;;;;;;;;;;;;;;;;;4451909;32;19980;-81
2023/01/05 04:55:36;;;;;;;;;;;;;;;;;;4441002;32;19951;-82
2023/01/05 04:58:01;;;;;;;;;;;;;;;;;;4440179;32;19955;-81
2023/01/05 05:00:27;;;;;;;;;;;;;;;;;;4441364;32;19932;-81
2023/01/05 05:02:52;;;;;;;;;;;;;;;;;;4440969;32;19952;-82
2023/01/05 05:05:17;;;;;;;;;;;;;;;;;;4455728;32;20263;-82
2023/01/05 05:07:42;;;;;;;;;;;;;;;;;;4440491;32;20309;-82
2023/01/05 05:10:07;;;;;;;;;;;;;;;;;;4454304;32;20361;-82
2023/01/05 05:12:32;;;;;;;;;;;;;;;;;;4439883;32;19944;-82
2023/01/05 05:14:58;;;;;;;;;;;;;;;;;;4440760;32;19932;-82
2023/01/05 05:17:23;;;;;;;;;;;;;;;;;;4454900;32;20306;-82
2023/01/05 05:19:48;;;;;;;;;;;;;;;;;;4440528;32;19936;-82
2023/01/05 05:22:13;;;;;;;;;;;;;;;;;;4454607;32;19972;-82
2023/01/05 05:24:38;;;;;;;;;;;;;;;;;;4439926;32;19945;-81
2023/01/05 05:27:03;;;;;;;;;;;;;;;;;;4440445;32;19937;-82
2023/01/05 05:29:28;;;;;;;;;;;;;;;;;;4440178;32;19936;-82
2023/01/05 05:31:53;;;;;;;;;;;;;;;;;;4441224;32;19952;-82
2023/01/05 05:34:18;;;;;;;;;;;;;;;;;;4466398;32;19924;-81
2023/01/05 05:36:44;;;;;;;;;;;;;;;;;;4456930;32;19937;-82
2023/01/05 05:39:09;;;;;;;;;;;;;;;;;;4449451;32;19938;-82
2023/01/05 05:41:34;;;;;;;;;;;;;;;;;;4458596;32;19932;-82
2023/01/05 05:44:01;;;;;;;;;;;;;;;;;;4457295;32;19936;-82
2023/01/05 05:46:27;;;;;;;;;;;;;;;;;;4461296;32;19993;-80
2023/01/05 05:48:52;;;;;;;;;;;;;;;;;;4460928;32;19944;-80
2023/01/05 05:51:17;;;;;;;;;;;;;;;;;;4459778;32;19969;-81
2023/01/05 05:53:42;;;;;;;;;;;;;;;;;;4456703;32;19933;-81
2023/01/05 05:56:07;;;;;;;;;;;;;;;;;;4454142;32;20278;-81
2023/01/05 05:58:32;;;;;;;;;;;;;;;;;;4453828;32;19936;-81
2023/01/05 06:00:58;;;;;;;;;;;;;;;;;;4453210;32;19947;-81
2023/01/05 06:03:23;;;;;;;;;;;;;;;;;;4443176;32;20382;-81
2023/01/05 06:05:48;;;;;;;;;;;;;;;;;;4453615;32;19937;-80
2023/01/05 06:08:13;;;;;;;;;;;;;;;;;;4454050;32;19964;-76
2023/01/05 06:10:38;;;;;;;;;;;;;;;;;;4441262;32;19936;-76
2023/01/05 06:13:03;;;;;;;;;;;;;;;;;;4454017;32;19959;-76
2023/01/05 06:15:29;;;;;;;;;;;;;;;;;;4455129;32;19951;-76
2023/01/05 06:17:54;;;;;;;;;;;;;;;;;;4453714;32;19941;-76
2023/01/05 06:20:19;;;;;;;;;;;;;;;;;;4451530;32;19992;-76
2023/01/05 06:22:44;;;;;;;;;;;;;;;;;;4454290;32;19968;-76
2023/01/05 06:25:09;;;;;;;;;;;;;;;;;;4452669;32;19946;-77
2023/01/05 06:27:34;;;;;;;;;;;;;;;;;;4452872;32;20249;-76
2023/01/05 06:29:59;;;;;;;;;;;;;;;;;;4453745;32;19977;-76
2023/01/05 06:32:25;;;;;;;;;;;;;;;;;;4453053;32;19964;-76
2023/01/05 06:34:50;;;;;;;;;;;;;;;;;;4451236;32;19980;-76
2023/01/05 06:37:15;;;;;;;;;;;;;;;;;;4454053;32;19968;-76
2023/01/05 06:39:40;;;;;;;;;;;;;;;;;;4452192;32;20250;-76
2023/01/05 06:42:05;;;;;;;;;;;;;;;;;;4452463;32;19978;-76
2023/01/05 06:44:30;;;;;;;;;;;;;;;;;;4452287;32;20301;-76
2023/01/05 06:46:55;;;;;;;;;;;;;;;;;;4451459;32;19943;-77
2023/01/05 06:49:20;;;;;;;;;;;;;;;;;;4451534;32;19956;-76
2023/01/05 06:51:46;;;;;;;;;;;;;;;;;;4454596;32;19932;-75
2023/01/05 06:54:11;;;;;;;;;;;;;;;;;;4464693;32;19935;-74
2023/01/05 06:56:36;;;;;;;;;;;;;;;;;;4463539;32;19940;-77
2023/01/05 06:59:01;;;;;;;;;;;;;;;;;;4438939;32;19937;-76
2023/01/05 07:01:26;;;;;;;;;;;;;;;;;;4453162;32;19943;-76
2023/01/05 07:03:51;;;;;;;;;;;;;;;;;;4451826;32;20001;-77
2023/01/05 07:06:16;;;;;;;;;;;;;;;;;;4438004;32;19982;-76
2023/01/05 07:08:41;;;;;;;;;;;;;;;;;;4439590;32;19970;-75
2023/01/05 07:11:06;;;;;;;;;;;;;;;;;;4452869;32;20375;-75
2023/01/05 07:13:32;;;;;;;;;;;;;;;;;;4437727;32;19932;-75
2023/01/05 07:15:57;;;;;;;;;;;;;;;;;;4451696;32;19980;-76
2023/01/05 07:18:22;;;;;;;;;;;;;;;;;;4451732;32;19940;-75
2023/01/05 07:20:47;;;;;;;;;;;;;;;;;;4453718;32;19932;-76
2023/01/05 07:23:12;;;;;;;;;;;;;;;;;;4453840;32;19963;-75
2023/01/05 07:25:37;;;;;;;;;;;;;;;;;;4438757;32;19933;-76
2023/01/05 07:28:02;;;;;;;;;;;;;;;;;;4451926;32;19942;-76
2023/01/05 07:30:27;;;;;;;;;;;;;;;;;;4451263;32;19992;-75
2023/01/05 07:32:52;;;;;;;;;;;;;;;;;;4450712;32;20249;-76
2023/01/05 07:35:18;;;;;;;;;;;;;;;;;;4450831;32;20314;-76
2023/01/05 07:37:45;;;;;;;;;;;;;;;;;;4450498;32;20265;-76
2023/01/05 07:40:11;;;;;;;;;;;;;;;;;;4450619;32;19944;-75
2023/01/05 07:42:36;;;;;;;;;;;;;;;;;;4451642;32;19936;-76
2023/01/05 07:45:01;;;;;;;;;;;;;;;;;;4450230;32;19937;-76
2023/01/05 07:47:26;;;;;;;;;;;;;;;;;;4451779;32;19940;-76
2023/01/05 07:49:51;;;;;;;;;;;;;;;;;;4450104;32;19944;-74
2023/01/05 07:52:16;;;;;;;;;;;;;;;;;;4436841;32;19980;-75
2023/01/05 07:54:41;;;;;;;;;;;;;;;;;;4438387;32;19951;-75
2023/01/05 07:57:06;;;;;;;;;;;;;;;;;;4450043;32;19996;-75
2023/01/05 07:59:31;;;;;;;;;;;;;;;;;;4451123;32;19944;-75
2023/01/05 08:01:57;;;;;;;;;;;;;;;;;;4436388;32;19944;-75
2023/01/05 08:04:22;;;;;;;;;;;;;;;;;;4450958;32;19950;-76
2023/01/05 08:06:47;;;;;;;;;;;;;;;;;;4436154;32;20293;-76
2023/01/05 08:11:56;;;;;;;;;;;;;;;;;;4453875;32;19939;-76
2023/01/05 08:14:21;;;;;;;;;;;;;;;;;;4462440;32;19936;-76
2023/01/05 08:16:46;;;;;;;;;;;;;;;;;;4451268;32;19979;-76
2023/01/05 08:19:12;;;;;;;;;;;;;;;;;;4451528;32;20269;-77
2023/01/05 08:21:37;;;;;;;;;;;;;;;;;;4437496;32;20317;-76
2023/01/05 08:24:02;;;;;;;;;;;;;;;;;;4452315;32;19975;-76
2023/01/05 08:26:27;;;;;;;;;;;;;;;;;;4452628;32;19936;-76
2023/01/05 08:28:52;;;;;;;;;;;;;;;;;;4453430;32;19940;-75
2023/01/05 08:31:17;;;;;;;;;;;;;;;;;;4440069;32;19945;-75
2023/01/05 08:33:42;;;;;;;;;;;;;;;;;;4454514;32;19944;-75
2023/01/05 08:36:08;;;;;;;;;;;;;;;;;;4455426;32;20294;-75
2023/01/05 08:38:33;;;;;;;;;;;;;;;;;;4439362;32;19999;-76
2023/01/05 08:43:29;;;;;;;47.58;7.35;;;;;;;;;;4471410;31;20472;-71
2023/01/05 08:45:54;;;;;;;36.55;7.45;;;;;;;;;;4449448;32;20069;-70
2023/01/05 08:48:19;;;;;;;;;;;;;;;;;;4455443;32;20060;-71
2023/01/05 08:50:44;;;;;;;44.42;10.07;;;;;;;;;;4455054;32;19944;-73
2023/01/05 08:53:09;;;;;;;;;;;;;;;;;;4455075;32;20504;-72
2023/01/05 08:55:35;;;;;;;40.47;8.23;;;;;;;;;;4449558;32;20308;-72
2023/01/05 08:58:00;;;;;;;;;;;;;;;;;;4455683;32;20033;-72
2023/01/05 09:00:25;;;;;;;43.50;6.80;;;;;;;;;;4456282;32;20005;-71
2023/01/05 09:02:50;;;;;;;42.22;7.35;;;;;;;;;;4456570;32;20404;-72
2023/01/05 09:05:15;;;;;;;;;;;;;;;;;;4457822;32;20037;-72
2023/01/05 09:07:40;;;;;;;39.55;7.25;;;;;;;;;;4457350;32;19949;-71
2023/01/05 09:10:06;;;;;;;;;;;;;;;;;;4456903;32;20155;-71
2023/01/05 09:12:31;;;;;;;44.40;7.35;;;;;;;;;;4447575;32;19941;-71
2023/01/05 09:14:56;;;;;;;;;;;;;;;;;;4457026;32;20158;-70
2023/01/05 09:17:21;;;;;;;33.08;5.55;;;;;;;;;;4457564;32;19936;-72
2023/01/05 09:19:46;;;;;;;;;;;;;;;;;;4456659;32;20144;-72
2023/01/05 09:22:11;;;;;;;39.90;8.40;;;;;;;;;;4447339;32;20010;-71
2023/01/05 09:24:37;;;;;;;;;;;;;;;;;;4456415;32;20251;-72
2023/01/05 09:27:04;;;;;;;40.38;8.94;;;;;;;;;;4449991;32;19944;-72
2023/01/05 09:29:29;;;;;;;32.90;6.22;;;;;;;;;;4463898;32;20029;-71
2023/01/05 09:31:54;;;;;;;;;;;;;;;;;;4463236;32;20116;-72
2023/01/05 09:34:19;;;;;;;44.44;7.92;;;;;;;;;;4439811;32;20362;-71
2023/01/05 09:36:45;;;;;;;;;;;;;;;;;;4441797;32;20117;-72
2023/01/05 09:39:10;;;;;;;43.72;7.50;;;;;;;;;;4438787;32;20014;-74
2023/01/05 09:41:35;;;;;;;;;;;;;;;;;;4440143;32;20045;-72
2023/01/05 09:44:05;;;;;;;36.25;6.70;;;;;;;;;;4441324;32;19984;-72
2023/01/05 09:46:33;;;;;;;36.90;7.60;;;;;;;;;;4440975;32;20038;-69
2023/01/05 09:49:00;;;;;;;48.92;7.32;;;;;;;;;;4431127;32;20033;-71
2023/01/05 09:51:26;;;;;;;42.20;9.85;;;;;;;;;;4440078;32;20057;-71
2023/01/05 09:53:51;;;;;;;;;;;;;;;;;;4433903;32;20029;-70
2023/01/05 09:56:24;;;;;;;36.22;7.62;;;;;;;;;;4430266;32;19936;-71
2023/01/05 09:58:51;;;;;;;44.75;8.60;;;;;;;;;;4429984;32;20165;-72
2023/01/05 10:01:18;;;;;;;38.58;8.45;;;;;;;;;;4428539;32;20104;-70
2023/01/05 10:04:18;;;;;;;45.75;8.50;;;;;;;;;;4429791;32;20082;-69
2023/01/05 10:06:45;;;;;;;36.13;8.07;;;;;;;;;;4373126;32;20065;-70
2023/01/05 10:09:22;;;;;;;32.75;7.43;;;;;;;;;;4416333;32;20057;-70
2023/01/05 10:14:38;;;;;;;36.17;7.75;;;;;;;;;;4431834;32;20521;-70
2023/01/05 10:17:03;;;;;;;;;;;;;;;;;;4416462;32;20084;-71
2023/01/05 10:19:28;;;;;;;39.97;9.02;;;;;;;;;;4427465;32;19976;-70
2023/01/05 10:22:12;;;;;;;37.60;8.15;;;;;;;;;;4429841;32;20363;-70
2023/01/05 10:24:56;;;;;;;33.42;7.30;;;;;;;;;;4428784;32;20050;-70
2023/01/05 10:27:33;;;;;;;36.95;7.55;;;;;;;;;;4416944;32;20093;-70
2023/01/05 10:30:09;;;;;;;35.97;7.82;;;;;;;;;;4429570;32;20030;-71
2023/01/05 10:32:44;;;;;;;32.42;7.25;;;;;;;;;;4429646;32;20048;-70
2023/01/05 10:35:12;;;;;;;51.80;7.93;;;;;;;;;;4420459;32;20399;-71
2023/01/05 10:37:40;;;;;;;45.17;8.60;;;;;;;;;;4427561;32;20025;-70
2023/01/05 10:40:27;;;;;;;31.98;6.47;;;;;;;;;;4427543;32;20128;-70
2023/01/05 10:42:52;;;;;;;;;;;;;;;;;;4429064;32;20125;-71
2023/01/05 10:45:18;;;;;;;40.78;8.93;;;;;;;;;;4428346;32;19997;-71
2023/01/05 10:47:44;;;;;;;36.17;7.35;;;;;;;;;;4431410;32;20064;-71
2023/01/05 10:50:22;;;;;;;47.60;9.98;;;;;;;;;;4426056;32;20083;-70
2023/01/05 10:52:47;;;;;;;42.55;8.82;;;;;;;;;;4429445;32;20042;-71
2023/01/05 10:55:13;;;;;;;;;;;;;;;;;;4431748;32;20048;-70
2023/01/05 10:57:39;;;;;;;35.75;8.20;;;;;;;;;;4429819;32;19974;-71
2023/01/05 11:00:09;;;;;;;48.95;8.70;;;;;;;;;;4427234;32;20034;-71
2023/01/05 11:02:36;;;;;;;45.78;8.25;;;;;;;;;;4427817;32;20100;-71
2023/01/05 11:05:11;;;;;;;36.25;7.60;;;;;;;;;;4427398;32;20379;-70
2023/01/05 11:07:53;;;;;;;40.25;7.97;;;;;;;;;;4421258;32;20042;-71
2023/01/05 11:10:29;;;;;;;43.35;7.95;;;;;;;;;;4418007;32;20053;-72
2023/01/05 11:13:00;;;;;;;38.00;10.38;;;;;;;;;;4421935;32;20415;-72
2023/01/05 11:15:25;;;;;;;47.40;8.35;;;;;;;;;;4434112;32;20022;-72
2023/01/05 11:17:50;;;;;;;;;;;;;;;;;;4419172;32;20069;-72
2023/01/05 11:20:16;;;;;;;34.35;8.25;;;;;;;;;;4428512;32;19937;-70
2023/01/05 11:22:46;;;;;;;39.53;8.20;;;;;;;;;;4415854;32;20049;-71
2023/01/05 11:25:28;;;;;;;38.70;8.05;;;;;;;;;;4426800;32;20086;-72
2023/01/05 11:28:11;;;;;;;44.85;8.85;;;;;;;;;;4419550;32;20101;-71
2023/01/05 11:30:40;;;;;;;38.83;6.93;;;;;;;;;;4428908;32;20090;-72
2023/01/05 11:33:13;;;;;;;38.75;7.72;;;;;;;;;;4428211;32;20034;-71
2023/01/05 11:35:38;;;;;;;36.53;8.88;;;;;;;;;;4417778;32;20042;-71
2023/01/05 11:38:04;;;;;;;39.33;7.25;;;;;;;;;;4427331;32;20100;-72
2023/01/05 11:40:31;;;;;;;32.83;6.50;;;;;;;;;;4420805;32;20114;-71
2023/01/05 11:42:57;;;;;;;41.50;9.07;;;;;;;;;;4420664;32;20073;-71
2023/01/05 11:45:55;;;;;;;49.80;9.35;;;;;;;;;;4422707;32;20166;-71
2023/01/05 11:48:22;;;;;;;55.55;8.85;;;;;;;;;;4401986;32;20432;-71
2023/01/05 11:50:49;;;;;;;46.67;9.73;;;;;;;;;;4422891;32;20033;-72
2023/01/05 11:53:25;;;;;;;39.63;8.10;;;;;;;;;;4436290;32;20052;-71
2023/01/05 11:56:00;;;;;;;30.77;9.07;;;;;;;;;;4422730;32;20396;-72
2023/01/05 11:58:26;;;;;;;39.20;6.78;;;;;;;;;;4422259;32;20033;-72
2023/01/05 12:00:59;;;;;;;31.27;8.15;;;;;;;;;;4420328;32;20038;-71
2023/01/05 12:03:34;;;;;;;40.12;7.87;;;;;;;;;;4421975;32;20113;-70
2023/01/05 12:06:06;;;;;;;50.78;10.07;;;;;;;;;;4429443;32;20503;-72
2023/01/05 12:08:34;;;;;;;35.08;8.00;;;;;;;;;;4429305;32;20042;-72
2023/01/05 12:11:15;;;;;;;43.90;9.00;;;;;;;;;;4422292;32;20071;-70
2023/01/05 12:13:50;;;;;;;39.15;10.30;;;;;;;;;;4420578;32;20026;-70
2023/01/05 12:16:18;;;;;;;35.80;7.57;;;;;;;;;;4420812;32;20022;-71
2023/01/05 12:18:43;;;;;;;37.92;7.97;;;;;;;;;;4420725;32;20097;-72
2023/01/05 12:21:08;;;;;;;;;;;;;;;;;;4422275;32;20068;-72
2023/01/05 12:23:36;;;;;;;42.17;7.75;;;;;;;;;;4427955;32;19953;-72
2023/01/05 12:26:07;;;;;;;40.33;8.45;;;;;;;;;;4431568;32;20572;-72
2023/01/05 12:28:57;;;;;;;42.50;6.95;;;;;;;;;;4417300;32;20030;-72
2023/01/05 12:31:25;;;;;;;44.50;8.90;;;;;;;;;;4429153;32;20106;-71
2023/01/05 12:34:00;;;;;;;42.90;8.95;;;;;;;;;;4432579;32;20055;-71
2023/01/05 12:36:35;;;;;;;34.92;7.03;;;;;;;;;;4436576;32;20022;-71
2023/01/05 12:39:19;;;;;;;52.88;10.05;;;;;;;;;;4429507;32;20120;-72
2023/01/05 12:41:47;;;;;;;44.88;7.70;;;;;;;;;;4433643;32;20037;-72
2023/01/05 12:44:15;;;;;;;47.58;7.95;;;;;;;;;;4437454;32;20065;-70
2023/01/05 12:46:56;;;;;;;34.85;7.82;;;;;;;;;;4434706;32;20055;-71
2023/01/05 12:49:24;;;;;;;38.15;7.85;;;;;;;;;;4436729;32;20026;-71
2023/01/05 12:51:52;;;;;;;43.97;8.63;;;;;;;;;;4435848;32;20046;-72
2023/01/05 12:54:36;;;;;;;44.80;8.85;;;;;;;;;;4434987;32;20350;-71
2023/01/05 12:57:10;;;;;;;48.40;10.27;;;;;;;;;;4437057;32;20034;-72
2023/01/05 12:59:58;;;;;;;37.58;8.20;;;;;;;;;;4436351;32;20328;-71
2023/01/05 13:02:23;;;;;;;40.33;8.50;;;;;;;;;;4437196;32;20091;-72
2023/01/05 13:04:48;;;;;;;;;;;;;;;;;;4419016;32;20030;-72
2023/01/05 13:07:22;;;;;;;40.28;9.35;;;;;;;;;;4421488;32;19941;-72
2023/01/05 13:09:54;;;;;;;41.45;9.38;;;;;;;;;;4420937;32;20113;-72
2023/01/05 13:12:19;;;;;;;43.50;8.10;;;;;;;;;;4420263;32;20014;-72
2023/01/05 13:14:51;;;;;;;;;;;;;;;;;;4432010;32;20185;-72
2023/01/05 13:17:23;;;;;;;41.55;10.63;;;;;;;;;;4432320;32;19968;-72
2023/01/05 13:19:50;;;;;;;42.05;8.30;;;;;;;;;;4430930;32;20112;-73
2023/01/05 13:22:27;;;;;;;33.55;7.70;;;;;;;;;;4445360;32;20056;-71
2023/01/05 13:24:52;;;;;;;;;;;;;;;;;;4439164;32;20030;-71
2023/01/05 13:27:17;;;;;;;47.70;9.48;;;;;;;;;;4434566;32;19955;-71
2023/01/05 13:29:47;;;;;;;41.00;9.05;;;;;;;;;;4437361;32;20087;-73
2023/01/05 13:32:12;;;;;;;46.72;8.95;;;;;;;;;;4431853;32;20217;-72
2023/01/05 13:34:37;;;;;;;;;;;;;;;;;;4437715;32;20026;-70
2023/01/05 13:37:03;;;;;;;39.15;8.75;;;;;;;;;;4437956;32;19991;-71
2023/01/05 13:39:28;;;;;;;;;;;;;;;;;;4439927;32;20189;-72
2023/01/05 13:42:02;;;;;;;38.95;8.30;;;;;;;;;;4437938;32;20362;-71
2023/01/05 13:44:33;;;;;;;45.70;8.18;;;;;;;;;;4423373;32;20094;-71
2023/01/05 13:47:04;;;;;;;35.08;6.95;;;;;;;;;;4424031;32;20038;-71
2023/01/05 13:49:40;;;;;;;38.63;8.18;;;;;;;;;;4422741;32;20026;-71
2023/01/05 13:52:16;;;;;;;43.83;8.73;;;;;;;;;;4423352;32;20022;-71
2023/01/05 13:54:43;;;;;;;45.83;7.80;;;;;;;;;;4435097;32;20064;-72
2023/01/05 13:57:15;;;;;;;41.58;8.25;;;;;;;;;;4437388;32;20045;-73
2023/01/05 13:59:40;;;;;;;30.42;7.03;;;;;;;;;;4437366;32;20073;-72
2023/01/05 14:02:05;;;;;;;;;;;;;;;;;;4449216;32;20026;-70
2023/01/05 14:04:33;;;;;;;47.72;8.77;;;;;;;;;;4437687;32;19971;-70
2023/01/05 14:07:00;;;;;;;50.85;9.90;;;;;;;;;;4438526;32;20154;-72
2023/01/05 14:09:28;;;;;;;44.17;8.38;;;;;;;;;;4439585;32;20156;-72
2023/01/05 14:12:06;;;;;;;36.08;7.85;;;;;;;;;;4437497;32;20110;-71
2023/01/05 14:14:51;;;;;;;46.95;9.98;;;;;;;;;;4435565;32;20115;-72
2023/01/05 14:17:36;;;;;;;47.95;9.98;;;;;;;;;;4425485;32;20359;-72
2023/01/05 14:20:01;;;;;;;35.92;8.07;;;;;;;;;;4432908;32;20147;-71
2023/01/05 14:22:26;;;;;;;;;;;;;;;;;;4429873;32;20038;-72
2023/01/05 14:24:51;;;;;;;39.90;9.32;;;;;;;;;;4429686;32;20348;-72
2023/01/05 14:27:16;;;;;;;;;;;;;;;;;;4429668;32;20152;-72
2023/01/05 14:29:45;;;;;;;48.55;8.57;;;;;;;;;;4429675;32;20334;-72
2023/01/05 14:32:24;;;;;;;54.08;10.75;;;;;;;;;;4430351;32;20121;-72
2023/01/05 14:34:58;;;;;;;41.47;8.88;;;;;;;;;;4431144;32;20061;-71
2023/01/05 14:37:34;;;;;;;42.13;9.30;;;;;;;;;;4429703;32;20093;-71
2023/01/05 14:39:59;;;;;;;37.10;7.87;;;;;;;;;;4434520;32;20088;-73
2023/01/05 14:42:33;;;;;;;36.97;8.32;;;;;;;;;;4436875;32;20101;-72
2023/01/05 14:44:58;;;;;;;43.60;7.68;;;;;;;;;;4430049;32;20093;-72
2023/01/05 14:47:23;;;;;;;;;;;;;;;;;;4429378;32;20111;-71
2023/01/05 14:49:53;;;;;;;48.67;8.32;;;;;;;;;;4427778;32;20385;-72
2023/01/05 14:52:38;;;;;;;44.25;7.12;;;;;;;;;;4428600;32;20400;-72
2023/01/05 14:55:03;;;;;;;52.25;9.15;;;;;;;;;;4428538;32;20034;-71
2023/01/05 14:57:29;;;;;;;;;;;;;;;;;;4427987;32;20054;-72
2023/01/05 15:00:10;;;;;;;53.75;10.25;;;;;;;;;;4428916;32;19972;-72
2023/01/05 15:02:45;;;;;;;47.17;8.75;;;;;;;;;;4428139;32;20034;-71
2023/01/05 15:05:11;;;;;;;50.12;9.50;;;;;;;;;;4427278;32;20415;-72
2023/01/05 15:07:55;;;;;;;46.70;8.75;;;;;;;;;;4428353;32;20061;-73
2023/01/05 15:10:32;;;;;;;43.87;8.32;;;;;;;;;;4429377;32;20060;-72
2023/01/05 15:13:11;;;;;;;40.28;6.87;;;;;;;;;;4429514;32;20069;-72
2023/01/05 15:15:48;;;;;;;48.67;9.48;;;;;;;;;;4429140;32;20418;-73
2023/01/05 15:18:26;;;;;;;45.53;8.82;;;;;;;;;;4428034;32;20451;-72
2023/01/05 15:20:57;;;;;;;43.63;8.13;;;;;;;;;;4429448;32;20078;-73
2023/01/05 15:23:22;;;;;;;29.98;6.10;;;;;;;;;;4420581;32;20150;-73
2023/01/05 15:25:47;;;;;;;;;;;;;;;;;;4427851;32;20457;-72
2023/01/05 15:28:18;;;;;;;41.22;6.00;;;;;;;;;;4428045;32;19975;-72
2023/01/05 15:30:50;;;;;;;36.50;7.10;;;;;;;;;;4429347;32;20064;-72
2023/01/05 15:33:17;;;;;;;43.75;7.37;;;;;;;;;;4421427;32;20026;-72
2023/01/05 15:35:48;;;;;;;44.00;7.55;;;;;;;;;;4428198;32;20359;-72
2023/01/05 15:38:21;;;;;;;35.22;7.43;;;;;;;;;;4428260;32;20026;-71
2023/01/05 15:40:47;;;;;;;34.78;6.15;;;;;;;;;;4429948;32;20038;-73
2023/01/05 15:43:12;;;;;;;;;;;;;;;;;;4427979;32;20556;-73
2023/01/05 15:45:41;;;;;;;41.63;7.30;;;;;;;;;;4429072;32;19955;-72
2023/01/05 15:48:27;;;;;;;45.58;7.45;;;;;;;;;;4426314;32;20129;-73
2023/01/05 15:50:54;;;;;;;44.30;6.60;;;;;;;;;;4425589;32;20172;-72
2023/01/05 15:53:25;;;;;;;48.50;8.18;;;;;;;;;;4412715;32;20129;-71
2023/01/05 15:55:51;;;;;;;43.53;7.00;;;;;;;;;;4428557;32;20026;-72
2023/01/05 15:58:16;;;;;;;;;;;;;;;;;;4428169;32;20096;-72
2023/01/05 16:00:41;;;;;;;37.22;6.82;;;;;;;;;;4427539;32;19946;-73
2023/01/05 16:03:20;;;;;;;36.75;6.65;;;;;;;;;;4437072;32;20058;-73
2023/01/05 16:05:45;;;;;;;37.83;7.70;;;;;;;;;;4422041;32;20014;-73
2023/01/05 16:08:10;;;;;;;;;;;;;;;;;;4428892;32;20034;-75
2023/01/05 16:10:44;;;;;;;46.80;8.98;;;;;;;;;;4427456;32;19948;-72
2023/01/05 16:13:17;;;;;;;37.35;9.13;;;;;;;;;;4427678;32;20081;-73
2023/01/05 16:15:44;;;;;;;45.40;9.45;;;;;;;;;;4429292;32;20075;-73
2023/01/05 16:18:13;;;;;;;49.63;10.43;;;;;;;;;;4427141;32;20069;-73
2023/01/05 16:20:40;;;;;;;32.72;9.23;;;;;;;;;;4427876;32;20034;-72
2023/01/05 16:23:17;;;;;;;36.35;10.57;;;;;;;;;;4427230;32;20085;-73
2023/01/05 16:25:48;;;;;;;35.42;9.98;;;;;;;;;;4426671;32;20087;-73
2023/01/05 16:28:16;;;;;;;27.33;10.43;;;;;;;;;;4428884;32;20080;-72